Prewitt, New Mexico
Current Conditions -  °F | °C
As of 5:37 PM on Tuesday 25 Nov 2014 (Local Time) from KGNT Reporting Station
Clear Clear  
Wind Chill: 30°   Ceiling: Unl
Heat Index: 36°   Visibility: 10mi
Dew Point:   Wind: 7mph
Humidity: 26%   Direction: 300°WNW
Pressure: 30.32"   Gusts: NA
Location:  35.36°N, 108.04°W
Report Text: KGNT 260037Z AUTO 30006KT 10SM CLR 02/M16 A3032 RMK AO2
Loading
Personal Weather Stations






























Interactive Weather Map New forecast layout! Learn more

10-Day Weather Forecast

Advertisements
Track Severe Weather on mobile